Portada
METAR-TAF:

METAR-TAF

Aeroports :

Amman, Jordània

latitud: 31-59N, longitud: 035-59E, altitud: 767 m

Observació

L'informe es va fer fa 45 minuts, a les 22:00 UTC
Vent 8 kt del Oest/Sud-Oest
Temperatura 26°C
Humitat 45%
Pressió 1008 hPa
Visibilitat: 5000 m
calitja

METAR: OJAM 152200Z 25008KT 5000 HZ NSC 26/13 Q1008 NOSIG

Hora: 01:45 (22:45 UTC)

Pronòstic

L'informe es va fer fa 5 hores i 45 minuts, a les 17:00 UTC
Pronòstic vàlid del 15 a les 18 UTC al 16 a les 24 UTC
Vent 8 kt del Oest
Visibilitat: 5000 m
calitja
Temporalment
l' 16 a les 10 UTC al 16 a les 16 UTC
Vent 16 kt del Oest/Nord-Oest
Visibilitat: 4000 m
torb alta de pols

TAF: OJAM 151700Z 1518/1624 28008KT 5000 HZ NSC TEMPO 1610/1616 29016KT 4000 BLDU

Observacions i pronòstics meteorològics de més de 4000 aeroports (METAR i TAF).

Les estacions disponibles són els punts grocs i vermells al mapa.

Posi el ratolí al punt desitjat per veure el nom de l'estació.

Feu clic per veure les observacions i els pronòstics meteorològics.

Per canviar el mapa: feu clic els botons verds amb una creu de color negre per apropar; al botó verd amb un guió per allunyar la imatge; o en les fletxes verdes per a mapes adjacents.


METAR-TAF: